Time;durP1;ratioP1;P1;durP2;ratioP2;P2;SDS_P1;SDS_P2;PMS_P1;PMS_P2;Temp;Humidity;BMP_temperature;BMP_pressure;BME280_temperature;BME280_humidity;BME280_pressure;Samples;Min_cycle;Max_cycle;Signal;HPM_P1;HPM_P2
2022/09/26 00:00:50;;;;;;;19.63;18.33;;;11.00;99.90;;;;;;5094113;28;20484;-66
2022/09/26 00:03:15;;;;;;;18.50;17.40;;;11.00;99.90;;;;;;5094904;28;20493;-66
2022/09/26 00:05:41;;;;;;;19.23;18.03;;;11.00;99.90;;;;;;5094746;28;20658;-67
2022/09/26 00:08:06;;;;;;;20.58;19.35;;;11.00;99.90;;;;;;5094001;28;20442;-67
2022/09/26 00:10:33;;;;;;;18.05;16.65;;;10.90;99.90;;;;;;5095325;28;20386;-67
2022/09/26 00:13:00;;;;;;;18.23;17.13;;;10.90;99.90;;;;;;5093731;28;20385;-67
2022/09/26 00:15:25;;;;;;;20.45;19.25;;;10.90;99.90;;;;;;5093463;28;20541;-67
2022/09/26 00:17:51;;;;;;;20.27;19.10;;;11.00;99.90;;;;;;5094502;28;20410;-67
2022/09/26 00:20:17;;;;;;;19.88;18.73;;;11.00;99.90;;;;;;5093681;28;20396;-67
2022/09/26 00:22:42;;;;;;;18.65;17.65;;;11.00;99.90;;;;;;5094846;28;20381;-67
2022/09/26 00:25:08;;;;;;;19.30;17.90;;;11.00;99.90;;;;;;5093317;28;20786;-67
2022/09/26 00:27:33;;;;;;;20.45;19.08;;;10.90;99.90;;;;;;5093848;28;20382;-67
2022/09/26 00:29:59;;;;;;;20.13;19.02;;;10.90;99.90;;;;;;5092551;28;20451;-67
2022/09/26 00:32:24;;;;;;;18.70;17.70;;;10.90;99.90;;;;;;5091484;28;20500;-67
2022/09/26 00:34:50;;;;;;;20.20;18.83;;;10.90;99.90;;;;;;5091397;28;20401;-67
2022/09/26 00:37:16;;;;;;;21.73;20.52;;;10.90;99.90;;;;;;5090988;28;20405;-68
2022/09/26 00:39:42;;;;;;;22.80;21.30;;;10.90;99.90;;;;;;5091412;28;20468;-68
2022/09/26 00:42:14;;;;;;;20.63;19.40;;;10.90;99.90;;;;;;5090728;28;20381;-68
2022/09/26 00:44:49;;;;;;;23.55;22.13;;;10.90;99.90;;;;;;5091109;28;20422;-68
2022/09/26 00:47:31;;;;;;;19.95;18.75;;;10.90;99.90;;;;;;5092785;28;20416;-66
2022/09/26 00:50:12;;;;;;;22.43;20.90;;;10.90;99.90;;;;;;5092387;28;20394;-68
2022/09/26 00:52:43;;;;;;;19.70;18.30;;;10.80;99.90;;;;;;5093174;28;20429;-67
2022/09/26 00:55:13;;;;;;;21.83;20.58;;;10.80;99.90;;;;;;5094424;28;20385;-67
2022/09/26 00:57:46;;;;;;;22.73;21.33;;;10.60;99.90;;;;;;5092463;28;20787;-68
2022/09/26 01:00:13;;;;;;;23.48;22.08;;;10.60;99.90;;;;;;5092932;28;20378;-68
2022/09/26 01:02:41;;;;;;;26.30;24.70;;;10.50;99.90;;;;;;5092004;28;20381;-68
2022/09/26 01:05:09;;;;;;;22.65;21.13;;;10.50;99.90;;;;;;5091372;28;20393;-68
2022/09/26 01:07:35;;;;;;;24.55;23.10;;;10.50;99.90;;;;;;5090900;28;20995;-67
2022/09/26 01:10:03;;;;;;;28.50;26.87;;;10.60;99.90;;;;;;5091883;28;20397;-66
2022/09/26 01:12:30;;;;;;;26.13;24.70;;;10.50;99.90;;;;;;5091104;28;20484;-67
2022/09/26 01:14:56;;;;;;;23.30;21.90;;;10.60;99.90;;;;;;5089490;28;20454;-66
2022/09/26 01:17:23;;;;;;;27.30;25.67;;;10.60;99.90;;;;;;5090371;28;20410;-66
2022/09/26 01:20:04;;;;;;;26.70;25.10;;;10.60;99.90;;;;;;5092002;28;20410;-65
2022/09/26 01:23:04;;;;;;;24.33;22.75;;;10.60;99.90;;;;;;5094291;28;20413;-65
2022/09/26 01:26:03;;;;;;;27.25;25.48;;;10.60;99.90;;;;;;5093386;28;20392;-66
2022/09/26 01:29:14;;;;;;;24.42;22.92;;;10.60;99.90;;;;;;5094315;28;20386;-66
2022/09/26 01:35:18;;;;;;;24.45;23.05;;;10.60;99.90;;;;;;5092200;28;20376;-66
2022/09/26 01:38:01;;;;;;;23.50;22.08;;;10.60;99.90;;;;;;5090751;28;20405;-66
2022/09/26 01:41:05;;;;;;;25.70;23.90;;;10.60;99.90;;;;;;5092150;28;20382;-66
2022/09/26 01:44:14;;;;;;;20.58;19.25;;;10.60;99.90;;;;;;5091077;28;20793;-66
2022/09/26 01:46:43;;;;;;;22.73;21.42;;;10.60;99.90;;;;;;5090205;28;20492;-66
2022/09/26 01:49:12;;;;;;;22.17;20.77;;;10.70;99.90;;;;;;5090503;28;20473;-66
2022/09/26 01:51:54;;;;;;;20.37;19.10;;;10.70;99.90;;;;;;5092081;28;20385;-66
2022/09/26 01:54:27;;;;;;;24.05;22.55;;;10.70;99.90;;;;;;5092543;28;20386;-66
2022/09/26 01:56:57;;;;;;;23.75;22.30;;;10.60;99.90;;;;;;5092389;28;20370;-66
2022/09/26 01:59:31;;;;;;;21.63;20.25;;;10.60;99.90;;;;;;5092340;28;20382;-66
2022/09/26 02:02:03;;;;;;;26.25;24.45;;;10.60;99.90;;;;;;5092000;28;20456;-67
2022/09/26 02:04:36;;;;;;;24.83;23.38;;;10.50;99.90;;;;;;5092510;28;20705;-66
2022/09/26 02:07:26;;;;;;;21.55;20.05;;;10.50;99.90;;;;;;5092790;28;20393;-66
2022/09/26 02:10:01;;;;;;;30.07;28.27;;;10.40;99.90;;;;;;5093043;28;20378;-66
2022/09/26 02:12:35;;;;;;;24.83;22.95;;;10.40;99.90;;;;;;5092091;28;20378;-67
2022/09/26 02:15:05;;;;;;;24.17;22.75;;;10.40;99.90;;;;;;5092098;28;20418;-66
2022/09/26 02:17:37;;;;;;;29.35;27.60;;;10.40;99.90;;;;;;5091322;28;20575;-66
2022/09/26 02:20:10;;;;;;;29.73;27.67;;;10.40;99.90;;;;;;5091093;28;20450;-66
2022/09/26 02:22:36;;;;;;;27.92;26.15;;;10.50;99.90;;;;;;5091435;28;20388;-66
2022/09/26 02:25:03;;;;;;;23.40;21.90;;;10.50;99.90;;;;;;5095196;28;20374;-66
2022/09/26 02:27:29;;;;;;;25.85;24.10;;;10.50;99.90;;;;;;5095455;27;20382;-66
2022/09/26 02:29:55;;;;;;;22.08;20.58;;;10.50;99.90;;;;;;5095249;28;20382;-66
2022/09/26 02:32:28;;;;;;;22.05;20.52;;;10.50;99.90;;;;;;5094071;28;20489;-66
2022/09/26 02:34:55;;;;;;;26.85;25.05;;;10.40;99.90;;;;;;5095215;28;20421;-66
2022/09/26 02:37:21;;;;;;;25.00;23.40;;;10.40;99.90;;;;;;5093563;28;20406;-66
2022/09/26 02:39:49;;;;;;;25.17;23.45;;;10.50;99.90;;;;;;5095248;28;20671;-66
2022/09/26 02:42:57;;;;;;;23.33;21.80;;;10.40;99.90;;;;;;5093821;28;20389;-66
2022/09/26 02:45:35;;;;;;;35.15;32.97;;;10.50;99.90;;;;;;5095745;28;20440;-66
2022/09/26 02:48:07;;;;;;;24.98;23.20;;;10.50;99.90;;;;;;5095118;28;20980;-66
2022/09/26 02:50:51;;;;;;;29.80;28.00;;;10.50;99.90;;;;;;5094484;28;20381;-66
2022/09/26 02:53:53;;;;;;;27.85;26.13;;;10.50;99.90;;;;;;5095375;28;20768;-66
2022/09/26 02:56:44;;;;;;;25.58;24.02;;;10.50;99.90;;;;;;5095673;28;20377;-66
2022/09/26 02:59:25;;;;;;;30.73;29.00;;;10.50;99.90;;;;;;5095959;28;20382;-66
2022/09/26 03:02:04;;;;;;;28.30;26.70;;;10.50;99.90;;;;;;5094703;28;20382;-66
2022/09/26 03:04:34;;;;;;;31.10;29.17;;;10.50;99.90;;;;;;5095691;28;20451;-66
2022/09/26 03:07:05;;;;;;;36.30;34.30;;;10.50;99.90;;;;;;5096166;28;20450;-66
2022/09/26 03:09:32;;;;;;;30.92;28.90;;;10.50;99.90;;;;;;5094962;28;20389;-66
2022/09/26 03:12:00;;;;;;;28.90;27.33;;;10.50;99.90;;;;;;5095590;28;20378;-66
2022/09/26 03:14:29;;;;;;;34.50;32.58;;;10.50;99.90;;;;;;5095955;28;20385;-66
2022/09/26 03:16:56;;;;;;;39.25;37.13;;;10.50;99.90;;;;;;5094655;28;20401;-66
2022/09/26 03:19:40;;;;;;;38.97;36.58;;;10.50;99.90;;;;;;5094454;28;20394;-66
2022/09/26 03:22:05;;;;;;;33.50;31.73;;;10.60;99.90;;;;;;5095215;28;20433;-66
2022/09/26 03:24:34;;;;;;;24.80;23.17;;;10.60;99.90;;;;;;5095070;28;20425;-66
2022/09/26 03:27:03;;;;;;;28.27;26.50;;;10.60;99.90;;;;;;5096068;28;20798;-66
2022/09/26 03:29:31;;;;;;;27.50;25.75;;;10.50;99.90;;;;;;5095526;28;20447;-66
2022/09/26 03:31:59;;;;;;;39.45;37.22;;;10.40;99.90;;;;;;5093756;28;20390;-67
2022/09/26 03:34:25;;;;;;;37.38;35.13;;;10.40;99.90;;;;;;5093670;28;20381;-66
2022/09/26 03:36:51;;;;;;;43.40;40.97;;;10.40;99.90;;;;;;5094725;28;20675;-66
2022/09/26 03:39:17;;;;;;;41.07;38.87;;;10.40;99.90;;;;;;5094167;28;20778;-66
2022/09/26 03:41:42;;;;;;;26.97;25.27;;;10.40;99.90;;;;;;5094340;28;20800;-66
2022/09/26 03:44:08;;;;;;;36.28;34.30;;;10.40;99.90;;;;;;5094073;28;20475;-67
2022/09/26 03:46:34;;;;;;;42.55;40.05;;;10.40;99.90;;;;;;5094099;28;20693;-67
2022/09/26 03:48:59;;;;;;;31.60;29.73;;;10.40;99.90;;;;;;5094709;28;20472;-67
2022/09/26 03:51:25;;;;;;;28.93;27.03;;;10.40;99.90;;;;;;5093673;28;20389;-66
2022/09/26 03:53:50;;;;;;;32.55;30.52;;;10.40;99.90;;;;;;5092933;28;20386;-66
2022/09/26 03:56:18;;;;;;;45.40;42.67;;;10.30;99.90;;;;;;5090158;28;20680;-67
2022/09/26 03:58:45;;;;;;;39.87;37.37;;;10.30;99.90;;;;;;5088945;28;20512;-66
2022/09/26 04:01:16;;;;;;;37.35;35.25;;;10.30;99.90;;;;;;5087137;28;20669;-66
2022/09/26 04:03:43;;;;;;;32.38;30.42;;;10.30;99.90;;;;;;5088451;28;20389;-66
2022/09/26 04:06:10;;;;;;;39.38;37.10;;;10.40;99.90;;;;;;5089332;28;20771;-67
2022/09/26 04:08:37;;;;;;;39.20;36.90;;;10.30;99.90;;;;;;5089064;28;20402;-67
2022/09/26 04:11:04;;;;;;;48.92;45.92;;;10.30;99.90;;;;;;5088958;28;20446;-66
2022/09/26 04:13:31;;;;;;;44.13;41.35;;;10.30;99.90;;;;;;5091068;28;20539;-66
2022/09/26 04:15:58;;;;;;;45.72;42.88;;;10.30;99.90;;;;;;5089947;28;20401;-67
2022/09/26 04:18:24;;;;;;;46.55;43.70;;;10.20;99.90;;;;;;5089026;28;20476;-67
2022/09/26 04:20:59;;;;;;;50.47;47.25;;;10.20;99.90;;;;;;5088057;28;20377;-68
2022/09/26 04:23:29;;;;;;;45.13;42.45;;;10.20;99.90;;;;;;5087170;28;21075;-67
2022/09/26 04:25:55;;;;;;;54.35;51.10;;;10.20;99.90;;;;;;5089394;28;20385;-67
2022/09/26 04:28:22;;;;;;;51.43;48.50;;;10.20;99.90;;;;;;5087228;28;20419;-68
2022/09/26 04:30:48;;;;;;;52.42;49.38;;;10.20;99.90;;;;;;5084775;28;20462;-67
2022/09/26 04:33:14;;;;;;;40.15;37.70;;;10.20;99.90;;;;;;5085446;28;20389;-67
2022/09/26 04:35:40;;;;;;;50.30;47.50;;;10.20;99.90;;;;;;5086721;28;20723;-68
2022/09/26 04:38:06;;;;;;;57.30;54.00;;;10.20;99.90;;;;;;5088324;28;20426;-67
2022/09/26 04:40:31;;;;;;;53.67;50.75;;;10.20;99.90;;;;;;5086080;28;20726;-67
2022/09/26 04:42:57;;;;;;;49.70;46.67;;;10.20;99.90;;;;;;5087369;28;20441;-67
2022/09/26 04:45:23;;;;;;;52.90;49.78;;;10.30;99.90;;;;;;5089876;28;20378;-67
2022/09/26 04:47:49;;;;;;;48.38;45.47;;;10.30;99.90;;;;;;5089777;28;20628;-67
2022/09/26 04:50:15;;;;;;;51.57;48.73;;;10.20;99.90;;;;;;5091242;28;20411;-67
2022/09/26 04:52:41;;;;;;;55.10;51.85;;;10.20;99.90;;;;;;5091173;28;20410;-67
2022/09/26 04:55:07;;;;;;;53.63;50.50;;;10.20;99.90;;;;;;5088852;28;20440;-67
2022/09/26 04:57:32;;;;;;;50.60;47.65;;;10.20;99.90;;;;;;5088326;28;20398;-67
2022/09/26 04:59:58;;;;;;;53.05;50.00;;;10.20;99.90;;;;;;5088917;28;20400;-67
2022/09/26 05:02:23;;;;;;;53.80;50.47;;;10.20;99.90;;;;;;5087692;28;20390;-66
2022/09/26 05:04:50;;;;;;;55.97;52.77;;;10.20;99.90;;;;;;5087217;28;20814;-66
2022/09/26 05:07:17;;;;;;;55.53;52.22;;;10.20;99.90;;;;;;5085805;28;20405;-67
2022/09/26 05:09:43;;;;;;;56.45;53.28;;;10.20;99.90;;;;;;5082885;28;20394;-67
2022/09/26 05:12:09;;;;;;;64.07;60.40;;;10.20;99.90;;;;;;5081756;28;20526;-67
2022/09/26 05:14:35;;;;;;;50.40;47.53;;;10.20;99.90;;;;;;5081215;28;20968;-67
2022/09/26 05:17:01;;;;;;;56.83;53.60;;;10.30;99.90;;;;;;5080631;28;20456;-67
2022/09/26 05:19:27;;;;;;;50.65;47.85;;;10.30;99.90;;;;;;5082091;28;20390;-67
2022/09/26 05:21:53;;;;;;;49.97;46.85;;;10.30;99.90;;;;;;5078392;28;20463;-67
2022/09/26 05:27:05;;;;;;;51.25;48.25;;;10.30;99.90;;;;;;5083428;28;20449;-67
2022/09/26 05:29:31;;;;;;;52.05;49.10;;;10.40;99.90;;;;;;5081201;28;20962;-66
2022/09/26 05:31:57;;;;;;;50.50;47.50;;;10.40;99.90;;;;;;5077986;28;20404;-66
2022/09/26 05:34:25;;;;;;;46.90;44.25;;;10.40;99.90;;;;;;5078633;28;20474;-67
2022/09/26 05:36:51;;;;;;;52.93;49.93;;;10.40;99.90;;;;;;5077936;28;20366;-67
2022/09/26 05:42:04;;;;;;;51.47;48.30;;;10.40;99.90;;;;;;5077900;28;20378;-67
2022/09/26 05:44:30;;;;;;;53.88;50.92;;;10.50;99.90;;;;;;5077035;28;20921;-67
2022/09/26 05:46:56;;;;;;;52.70;49.60;;;10.50;99.90;;;;;;5078616;28;20420;-67
2022/09/26 05:49:22;;;;;;;52.20;49.30;;;10.50;99.90;;;;;;5078756;28;20541;-67
2022/09/26 05:51:47;;;;;;;53.17;49.83;;;10.50;99.90;;;;;;5080558;28;20445;-67
2022/09/26 05:54:13;;;;;;;53.45;50.45;;;10.50;99.90;;;;;;5081614;28;20632;-67
2022/09/26 05:56:38;;;;;;;50.07;46.87;;;10.50;99.90;;;;;;5082156;28;20418;-67
2022/09/26 05:59:05;;;;;;;56.53;53.13;;;10.60;99.90;;;;;;5082451;28;20667;-67
2022/09/26 06:01:32;;;;;;;59.13;55.70;;;10.60;99.90;;;;;;5078751;28;20782;-67
2022/09/26 06:03:58;;;;;;;53.97;50.70;;;10.60;99.90;;;;;;5078214;28;21169;-68
2022/09/26 06:06:23;;;;;;;52.47;49.28;;;10.60;99.90;;;;;;5078234;28;20390;-67
2022/09/26 06:08:49;;;;;;;54.92;51.85;;;10.60;99.90;;;;;;5077098;28;20413;-66
2022/09/26 06:11:17;;;;;;;61.85;58.47;;;10.60;99.90;;;;;;5074661;28;20394;-67
2022/09/26 06:13:47;;;;;;;49.92;46.90;;;10.70;99.90;;;;;;5073585;28;20390;-67
2022/09/26 06:16:18;;;;;;;54.88;51.70;;;10.70;99.90;;;;;;5075293;28;20807;-67
2022/09/26 06:18:45;;;;;;;50.17;47.25;;;10.70;99.90;;;;;;5073402;28;20790;-67
2022/09/26 06:21:12;;;;;;;53.15;50.15;;;10.80;99.90;;;;;;5074060;28;20954;-68
2022/09/26 06:23:38;;;;;;;46.15;43.38;;;10.80;99.90;;;;;;5075153;28;20497;-67
2022/09/26 06:26:08;;;;;;;51.55;48.58;;;10.80;99.90;;;;;;5078744;28;20386;-67
2022/09/26 06:28:38;;;;;;;50.63;47.78;;;10.90;99.90;;;;;;5079082;28;20390;-68
2022/09/26 06:31:12;;;;;;;61.45;58.05;;;10.90;99.90;;;;;;5078313;28;20389;-67
2022/09/26 06:33:37;;;;;;;43.93;41.43;;;11.00;99.90;;;;;;5076986;28;20711;-67
2022/09/26 06:36:06;;;;;;;49.73;46.87;;;11.00;99.90;;;;;;5080423;28;20382;-67
2022/09/26 06:38:32;;;;;;;48.97;46.17;;;11.00;99.90;;;;;;5080020;28;20406;-67
2022/09/26 06:40:57;;;;;;;51.28;48.38;;;11.10;99.90;;;;;;5078640;28;20420;-67
2022/09/26 06:43:23;;;;;;;43.20;40.87;;;11.10;99.90;;;;;;5077440;28;20382;-68
2022/09/26 06:45:48;;;;;;;40.10;37.80;;;11.20;99.90;;;;;;5078619;28;20480;-67
2022/09/26 06:48:18;;;;;;;48.00;45.43;;;11.10;99.90;;;;;;5080341;28;20389;-67
2022/09/26 06:50:49;;;;;;;48.55;45.97;;;11.10;99.90;;;;;;5078240;28;20378;-67
2022/09/26 06:53:15;;;;;;;51.75;48.53;;;11.10;99.90;;;;;;5075201;28;20504;-67
2022/09/26 06:55:41;;;;;;;49.17;46.13;;;11.10;99.90;;;;;;5073650;28;20400;-67
2022/09/26 06:58:06;;;;;;;49.15;46.20;;;11.10;99.90;;;;;;5071385;28;20394;-67
2022/09/26 07:00:34;;;;;;;49.57;46.67;;;11.10;99.90;;;;;;5073319;28;20478;-67
2022/09/26 07:03:00;;;;;;;48.50;45.63;;;11.20;99.90;;;;;;5076102;28;20665;-68
2022/09/26 07:05:25;;;;;;;58.53;55.30;;;11.10;99.90;;;;;;5074002;28;20623;-67
2022/09/26 07:07:52;;;;;;;56.80;53.63;;;11.10;99.90;;;;;;5072896;28;20564;-67
2022/09/26 07:10:18;;;;;;;58.78;55.47;;;11.10;99.90;;;;;;5077010;28;20454;-67
2022/09/26 07:12:46;;;;;;;67.00;63.10;;;11.20;99.90;;;;;;5076928;28;20585;-67
2022/09/26 07:15:14;;;;;;;63.13;59.70;;;11.20;99.90;;;;;;5076287;28;20621;-67
2022/09/26 07:17:41;;;;;;;56.72;53.53;;;11.20;99.90;;;;;;5077849;28;20413;-67
2022/09/26 07:20:09;;;;;;;57.67;54.37;;;11.20;99.90;;;;;;5077501;28;20390;-67
2022/09/26 07:22:35;;;;;;;51.85;48.92;;;11.20;99.90;;;;;;5077652;28;20377;-67
2022/09/26 07:25:01;;;;;;;56.70;53.63;;;11.20;99.90;;;;;;5077263;28;20389;-67
2022/09/26 07:27:26;;;;;;;54.95;51.72;;;11.20;99.90;;;;;;5077746;28;20443;-66
2022/09/26 07:29:52;;;;;;;54.83;51.83;;;11.30;99.90;;;;;;5076623;28;20774;-70
2022/09/26 07:32:17;;;;;;;47.73;45.03;;;11.30;99.90;;;;;;5076913;28;20400;-66
2022/09/26 07:34:43;;;;;;;55.17;52.07;;;11.30;99.90;;;;;;5077301;28;20402;-67
2022/09/26 07:37:09;;;;;;;52.65;49.60;;;11.30;99.90;;;;;;5075868;28;20687;-67
2022/09/26 07:39:34;;;;;;;56.27;53.07;;;11.20;99.90;;;;;;5074508;28;20838;-67
2022/09/26 07:42:03;;;;;;;56.40;53.27;;;11.30;99.90;;;;;;5073385;28;20510;-67
2022/09/26 07:44:29;;;;;;;57.67;54.60;;;11.20;99.90;;;;;;5074956;28;20390;-67
2022/09/26 07:52:23;;;;;;;64.13;60.38;;;11.20;99.90;;;;;;5079846;28;20469;-67
2022/09/26 07:54:48;;;;;;;72.60;68.63;;;11.20;99.90;;;;;;5079071;28;20573;-67
2022/09/26 07:57:14;;;;;;;67.80;63.90;;;11.30;99.90;;;;;;5080579;28;20654;-67
2022/09/26 07:59:40;;;;;;;65.40;61.75;;;11.30;99.90;;;;;;5080507;28;20386;-67
2022/09/26 08:02:17;;;;;;;60.73;57.00;;;11.20;99.90;;;;;;5078653;28;20469;-67
2022/09/26 08:04:43;;;;;;;61.53;58.05;;;11.30;99.90;;;;;;5077008;28;20800;-66
2022/09/26 08:07:11;;;;;;;62.60;59.03;;;11.30;99.90;;;;;;5078147;28;20730;-67
2022/09/26 08:09:36;;;;;;;62.83;59.17;;;11.30;99.90;;;;;;5079825;28;20386;-67
2022/09/26 08:12:02;;;;;;;65.17;61.27;;;11.20;99.90;;;;;;5081734;28;20389;-67
2022/09/26 08:14:27;;;;;;;67.25;63.45;;;11.20;99.90;;;;;;5080537;28;20455;-67
2022/09/26 08:16:56;;;;;;;69.43;65.47;;;11.30;99.90;;;;;;5081014;28;20401;-68
2022/09/26 08:19:21;;;;;;;65.68;61.55;;;11.30;99.90;;;;;;5083183;28;20390;-67
2022/09/26 08:21:47;;;;;;;63.38;59.47;;;11.30;99.90;;;;;;5081739;28;20390;-67
2022/09/26 08:24:13;;;;;;;63.58;59.92;;;11.30;99.90;;;;;;5078993;28;20393;-67
2022/09/26 08:26:39;;;;;;;63.47;59.90;;;11.40;99.90;;;;;;5078629;28;20378;-67
2022/09/26 08:29:11;;;;;;;65.20;61.35;;;11.40;99.90;;;;;;5079120;28;20583;-67
2022/09/26 08:31:40;;;;;;;59.90;56.40;;;11.50;99.90;;;;;;5078096;28;20421;-67
2022/09/26 08:34:08;;;;;;;56.97;53.42;;;11.60;99.90;;;;;;5073748;28;20390;-68
2022/09/26 08:36:36;;;;;;;65.25;61.42;;;11.60;99.90;;;;;;5076391;28;20619;-68
2022/09/26 08:39:03;;;;;;;58.67;55.15;;;11.60;99.90;;;;;;5075117;28;20682;-67
2022/09/26 08:42:03;;;;;;;64.32;60.35;;;11.70;99.90;;;;;;5072529;28;20469;-67
2022/09/26 08:44:57;;;;;;;70.78;66.75;;;11.70;99.90;;;;;;5070502;28;20944;-67
2022/09/26 08:47:51;;;;;;;69.05;65.07;;;11.70;99.90;;;;;;5065815;28;20483;-67
2022/09/26 08:50:21;;;;;;;66.50;62.83;;;11.80;99.90;;;;;;5068119;28;20397;-67
2022/09/26 08:52:59;;;;;;;64.15;60.33;;;11.90;99.90;;;;;;5067353;28;20537;-67
2022/09/26 08:55:30;;;;;;;58.38;54.97;;;11.90;99.90;;;;;;5065673;28;20872;-67
2022/09/26 08:58:02;;;;;;;56.72;53.35;;;12.00;99.90;;;;;;5069865;28;20402;-67
2022/09/26 09:00:32;;;;;;;48.13;45.23;;;12.00;99.90;;;;;;5066831;28;20447;-66
2022/09/26 09:03:03;;;;;;;40.95;38.58;;;12.10;99.90;;;;;;5069022;28;20928;-66
2022/09/26 09:05:32;;;;;;;51.47;48.40;;;12.10;99.90;;;;;;5068820;28;20613;-66
2022/09/26 09:07:59;;;;;;;50.40;47.37;;;12.10;99.90;;;;;;5069893;28;20612;-67
2022/09/26 09:10:51;;;;;;;41.90;39.50;;;12.20;99.90;;;;;;5071654;28;20397;-65
2022/09/26 09:14:05;;;;;;;47.08;44.22;;;12.20;99.90;;;;;;5072947;28;20771;-67
2022/09/26 09:16:36;;;;;;;48.65;45.75;;;12.20;99.90;;;;;;5076146;28;20486;-67
2022/09/26 09:19:24;;;;;;;45.45;42.58;;;12.30;99.90;;;;;;5075682;28;20409;-67
2022/09/26 09:22:08;;;;;;;51.05;48.20;;;12.30;99.90;;;;;;5074696;28;20382;-67
2022/09/26 09:24:45;;;;;;;41.37;38.97;;;12.30;99.90;;;;;;5076516;28;20920;-68
2022/09/26 09:27:31;;;;;;;44.35;41.80;;;12.40;99.90;;;;;;5075770;28;20382;-67
2022/09/26 09:30:21;;;;;;;46.15;43.50;;;12.40;99.90;;;;;;5077218;28;20378;-67
2022/09/26 09:33:01;;;;;;;42.37;39.77;;;12.50;99.90;;;;;;5071255;28;20416;-67
2022/09/26 09:35:41;;;;;;;43.45;40.75;;;12.50;99.90;;;;;;5072332;28;20706;-66
2022/09/26 09:38:13;;;;;;;37.90;35.50;;;12.50;99.90;;;;;;5075273;28;20751;-67
2022/09/26 09:40:51;;;;;;;45.28;42.65;;;12.50;99.90;;;;;;5076543;28;20654;-65
2022/09/26 09:43:44;;;;;;;49.53;46.63;;;12.50;99.90;;;;;;5074736;28;20477;-66
2022/09/26 09:46:26;;;;;;;46.40;43.45;;;12.50;99.90;;;;;;5075143;28;20500;-67
2022/09/26 09:48:56;;;;;;;39.45;37.13;;;12.50;99.90;;;;;;5080870;28;20451;-67
2022/09/26 09:51:34;;;;;;;35.38;33.28;;;12.50;99.90;;;;;;5083507;28;20390;-67
2022/09/26 09:54:28;;;;;;;44.70;41.90;;;12.50;99.90;;;;;;5078957;28;20476;-67
2022/09/26 09:57:12;;;;;;;43.33;40.63;;;12.50;99.90;;;;;;5080936;28;20605;-67
2022/09/26 10:00:16;;;;;;;42.33;39.88;;;12.50;99.90;;;;;;5081198;28;20377;-67
2022/09/26 10:03:14;;;;;;;42.05;39.25;;;12.50;99.90;;;;;;5083354;28;21002;-66
2022/09/26 10:05:50;;;;;;;38.83;36.58;;;12.50;99.90;;;;;;5081476;28;20386;-66
2022/09/26 10:08:40;;;;;;;38.95;36.75;;;12.50;99.90;;;;;;5083328;28;20406;-66
2022/09/26 10:11:30;;;;;;;30.05;28.33;;;12.60;99.90;;;;;;5084200;28;20394;-66
2022/09/26 10:14:06;;;;;;;35.92;33.55;;;12.60;99.90;;;;;;5085474;28;20382;-61
2022/09/26 10:16:33;;;;;;;34.58;32.47;;;12.60;99.90;;;;;;5083837;28;20393;-61
2022/09/26 10:19:02;;;;;;;34.90;32.90;;;12.70;99.90;;;;;;5082783;28;20398;-67
2022/09/26 10:21:41;;;;;;;29.88;27.88;;;12.80;99.90;;;;;;5080214;28;20390;-67
2022/09/26 10:24:23;;;;;;;32.85;30.95;;;12.80;99.90;;;;;;5080224;28;20378;-67
2022/09/26 10:26:49;;;;;;;33.70;31.90;;;12.90;99.90;;;;;;5079797;28;20469;-67
2022/09/26 10:29:26;;;;;;;28.88;27.10;;;12.90;99.90;;;;;;5075363;28;20386;-67
2022/09/26 10:31:59;;;;;;;32.42;30.58;;;13.00;99.90;;;;;;5073990;28;20394;-67
2022/09/26 10:34:36;;;;;;;32.47;30.47;;;13.00;99.90;;;;;;5075120;28;21041;-67
2022/09/26 10:37:24;;;;;;;30.52;28.73;;;13.00;99.90;;;;;;5076356;28;20463;-67
2022/09/26 10:42:38;;;;;;;34.60;32.60;;;13.10;99.90;;;;;;5071206;28;20607;-67
2022/09/26 10:45:20;;;;;;;35.75;33.65;;;13.20;99.90;;;;;;5072226;28;20410;-67
2022/09/26 10:47:47;;;;;;;32.03;30.02;;;13.20;99.90;;;;;;5073570;28;20643;-67
2022/09/26 10:50:19;;;;;;;31.83;30.03;;;13.20;99.90;;;;;;5075088;28;20425;-67
2022/09/26 10:52:50;;;;;;;32.88;30.95;;;13.20;99.90;;;;;;5075405;28;20643;-68
2022/09/26 10:55:25;;;;;;;31.02;29.25;;;13.20;99.90;;;;;;5075275;28;20813;-67
2022/09/26 10:57:51;;;;;;;32.47;30.58;;;13.20;99.90;;;;;;5075836;28;20505;-68
2022/09/26 11:00:32;;;;;;;32.20;30.42;;;13.30;99.90;;;;;;5075686;28;20408;-68
2022/09/26 11:02:58;;;;;;;31.10;29.30;;;13.30;99.90;;;;;;5073512;28;20980;-67
2022/09/26 11:08:12;;;;;;;30.52;28.63;;;13.30;99.90;;;;;;5073220;28;20412;-68
2022/09/26 11:10:40;;;;;;;31.45;29.70;;;13.30;99.90;;;;;;5074056;28;20450;-68
2022/09/26 11:13:18;;;;;;;29.20;27.55;;;13.30;99.90;;;;;;5069674;28;20638;-66
2022/09/26 11:15:59;;;;;;;31.20;29.50;;;13.20;99.90;;;;;;5070560;28;20413;-66
2022/09/26 11:18:38;;;;;;;36.33;34.13;;;13.30;99.90;;;;;;5072308;28;20406;-66
2022/09/26 11:21:27;;;;;;;34.40;32.40;;;13.10;99.90;;;;;;5072402;28;20378;-66
2022/09/26 11:24:25;;;;;;;31.85;30.05;;;13.10;99.90;;;;;;5068656;28;20548;-66
2022/09/26 11:27:30;;;;;;;28.10;26.40;;;13.10;99.90;;;;;;5070394;28;20542;-66
2022/09/26 11:29:59;;;;;;;34.40;32.20;;;13.20;99.90;;;;;;5073151;28;20821;-66
2022/09/26 11:32:41;;;;;;;28.85;27.25;;;13.20;99.90;;;;;;5070990;28;20416;-66
2022/09/26 11:35:32;;;;;;;32.47;30.58;;;13.10;99.90;;;;;;5068309;28;20390;-66
2022/09/26 11:38:37;;;;;;;38.60;36.30;;;13.10;99.90;;;;;;5068096;28;20493;-67
2022/09/26 11:41:35;;;;;;;35.75;33.72;;;13.00;99.90;;;;;;5065596;28;20489;-66
2022/09/26 11:44:26;;;;;;;36.47;34.47;;;12.80;99.90;;;;;;5066329;28;20385;-66
2022/09/26 11:47:11;;;;;;;50.90;47.95;;;12.70;99.90;;;;;;5064708;28;21056;-67
2022/09/26 11:50:03;;;;;;;56.53;53.25;;;12.60;99.90;;;;;;5067224;28;20412;-67
2022/09/26 11:52:57;;;;;;;57.17;53.83;;;12.50;99.90;;;;;;5068187;28;20590;-67
2022/09/26 11:56:01;;;;;;;69.47;65.47;;;12.50;99.90;;;;;;5069705;28;20382;-67
2022/09/26 11:58:36;;;;;;;75.38;71.30;;;12.40;99.90;;;;;;5070457;28;20518;-67
2022/09/26 12:01:25;;;;;;;77.70;73.53;;;12.40;99.90;;;;;;5069181;28;20386;-67
2022/09/26 12:04:20;;;;;;;84.00;79.18;;;12.30;99.90;;;;;;5068163;28;20475;-67
2022/09/26 12:07:16;;;;;;;100.90;95.28;;;12.30;99.90;;;;;;5065830;28;20465;-66
2022/09/26 12:10:24;;;;;;;89.35;84.35;;;12.30;99.90;;;;;;5063924;28;20474;-67
2022/09/26 12:13:02;;;;;;;88.10;83.10;;;12.30;99.90;;;;;;5061346;28;20382;-66
2022/09/26 12:15:54;;;;;;;111.88;105.97;;;12.20;99.90;;;;;;5063460;28;20390;-66
2022/09/26 12:18:45;;;;;;;77.20;72.90;;;12.30;99.90;;;;;;5067279;28;20406;-66
2022/09/26 12:21:35;;;;;;;86.85;82.07;;;12.30;99.90;;;;;;5064378;28;20873;-66
2022/09/26 12:24:16;;;;;;;74.75;70.63;;;12.30;99.90;;;;;;5062865;28;20731;-67
2022/09/26 12:26:57;;;;;;;75.40;71.25;;;12.30;99.90;;;;;;5063067;28;20865;-67
2022/09/26 12:29:55;;;;;;;72.87;68.80;;;12.40;99.90;;;;;;5065470;28;20813;-67
2022/09/26 12:33:01;;;;;;;58.17;54.97;;;12.40;99.90;;;;;;5048531;28;20394;-66
2022/09/26 12:35:41;;;;;;;61.37;57.87;;;12.50;99.90;;;;;;5064143;28;20397;-68
2022/09/26 12:38:19;;;;;;;82.80;78.43;;;12.50;99.90;;;;;;5065376;28;20658;-66
2022/09/26 12:41:29;;;;;;;55.20;51.88;;;12.50;99.90;;;;;;5070688;28;20574;-67
2022/09/26 12:44:12;;;;;;;54.72;51.72;;;12.50;99.90;;;;;;5031150;28;20454;-67
2022/09/26 12:46:58;;;;;;;31.25;29.25;;;12.50;99.90;;;;;;5069591;28;20631;-67
2022/09/26 12:49:43;;;;;;;19.40;18.20;;;12.50;99.90;;;;;;5070754;28;20777;-66
2022/09/26 12:52:34;;;;;;;25.50;23.80;;;12.50;99.90;;;;;;5070865;28;20484;-66
2022/09/26 12:55:12;;;;;;;28.05;26.48;;;12.50;99.90;;;;;;5059635;28;20682;-66
2022/09/26 12:57:59;;;;;;;24.15;22.80;;;12.50;99.90;;;;;;5073243;28;20402;-66
2022/09/26 13:00:32;;;;;;;22.30;20.80;;;12.50;99.90;;;;;;5073481;28;20375;-67
2022/09/26 13:03:41;;;;;;;23.77;22.27;;;12.60;99.90;;;;;;5076829;28;20389;-66
2022/09/26 13:06:13;;;;;;;27.08;25.50;;;12.60;99.90;;;;;;5075111;28;20944;-67
2022/09/26 13:08:52;;;;;;;26.10;24.60;;;12.70;99.90;;;;;;5075118;28;20503;-67
2022/09/26 13:11:32;;;;;;;21.00;19.63;;;12.80;99.90;;;;;;5073786;28;21222;-65
2022/09/26 13:14:12;;;;;;;29.73;28.03;;;12.80;99.90;;;;;;5072672;28;20793;-67
2022/09/26 13:16:44;;;;;;;23.57;22.07;;;12.80;99.90;;;;;;5068824;28;20784;-65
2022/09/26 13:19:33;;;;;;;27.88;26.23;;;12.70;99.90;;;;;;5068186;28;20405;-66